This is the latest recevied weather packets stored in our database for station/object EW7404. If no packets are shown the sender has not sent any weather packets the latest 10 day(s).
| Time | Temp. | Humidity | Pressure | Rain* | Wind** | Luminosity | Snow |
|---|---|---|---|---|---|---|---|
| 1777966235 | 2.78° C | 69% | 952.1 hPa | 0 mm | - | - | - |
| 1777965616 | 2.22° C | 74% | 952.1 hPa | 0 mm | - | - | - |
| 1777964416 | 1.67° C | 76% | 952.1 hPa | 0 mm | - | - | - |
| 1777959015 | 1.11° C | 77% | 951.7 hPa | 0 mm | - | - | - |
| 1777957236 | 1.11° C | 77% | 951.6 hPa | 0 mm | - | - | - |
| 1777955416 | 1.11° C | 76% | 951.5 hPa | 0 mm | - | - | - |
| 1777954216 | 1.11° C | 77% | 951.5 hPa | 0 mm | - | - | - |
| 1777953615 | 1.11° C | 77% | 951.5 hPa | 0 mm | - | - | - |
| 1777948216 | 1.11° C | 75% | 951.4 hPa | 5.33 mm | - | - | - |
| 1777944016 | 0.56° C | 78% | 951.5 hPa | 0 mm | - | - | - |
| 1777942816 | 0.56° C | 77% | 951.4 hPa | 0 mm | - | - | - |
| 1777936216 | 1.11° C | 72% | 951.9 hPa | 0 mm | - | - | - |
| 1777929015 | 1.11° C | 77% | 952.1 hPa | 6.1 mm | - | - | - |
| 1777924816 | 1.11° C | 78% | 952.1 hPa | 0 mm | - | - | - |
| 1777915815 | 0.56° C | 79% | 951.1 hPa | 0 mm | - | - | - |
| 1777912816 | 0.56° C | 77% | 951.1 hPa | 0 mm | - | - | - |
| 1777912215 | 0.56° C | 79% | 951.1 hPa | 0 mm | - | - | - |
| 1777911615 | 0.56° C | 79% | 951.1 hPa | 0 mm | - | - | - |
| 1777911016 | 0.56° C | 80% | 951.1 hPa | 0 mm | - | - | - |
| 1777908616 | 0.56° C | 79% | 951.1 hPa | 0 mm | - | - | - |
| 1777908035 | 0.56° C | 78% | 951.1 hPa | 0 mm | - | - | - |
| 1777905016 | 0.56° C | 79% | 950.9 hPa | 0 mm | - | - | - |
| 1777904416 | 0.56° C | 77% | 950.7 hPa | 0.25 mm | - | - | - |
| 1777900815 | 0° C | 82% | 950.6 hPa | 0 mm | - | - | - |
| 1777899616 | 0° C | 88% | 950.6 hPa | 0 mm | - | - | - |
* Rain latest hour (hover to see other rain measurements)
** Current wind speed in m/s (hover to see current wind gust speed)